sensor_id;sensor_type;location;lat;lon;timestamp;P1;durP1;ratioP1;P2;durP2;ratioP2
37535;SDS011;23379;51.554;6.736;2024-01-06T00:01:45;10.60;;;7.88;;
37535;SDS011;23379;51.554;6.736;2024-01-06T00:04:10;10.00;;;8.55;;
37535;SDS011;23379;51.554;6.736;2024-01-06T00:06:35;11.32;;;8.57;;
37535;SDS011;23379;51.554;6.736;2024-01-06T00:09:01;10.32;;;8.35;;
37535;SDS011;23379;51.554;6.736;2024-01-06T00:11:26;13.88;;;8.45;;
37535;SDS011;23379;51.554;6.736;2024-01-06T00:13:51;11.13;;;8.38;;
37535;SDS011;23379;51.554;6.736;2024-01-06T00:16:17;11.98;;;8.15;;
37535;SDS011;23379;51.554;6.736;2024-01-06T00:18:43;10.55;;;8.60;;
37535;SDS011;23379;51.554;6.736;2024-01-06T00:21:09;10.68;;;8.10;;
37535;SDS011;23379;51.554;6.736;2024-01-06T00:23:34;11.80;;;9.25;;
37535;SDS011;23379;51.554;6.736;2024-01-06T00:25:59;11.38;;;9.15;;
37535;SDS011;23379;51.554;6.736;2024-01-06T00:28:25;13.30;;;9.48;;
37535;SDS011;23379;51.554;6.736;2024-01-06T00:30:50;13.60;;;10.20;;
37535;SDS011;23379;51.554;6.736;2024-01-06T00:33:15;13.77;;;10.48;;
37535;SDS011;23379;51.554;6.736;2024-01-06T00:35:41;17.27;;;10.68;;
37535;SDS011;23379;51.554;6.736;2024-01-06T00:38:06;14.98;;;11.00;;
37535;SDS011;23379;51.554;6.736;2024-01-06T00:40:31;18.67;;;11.63;;
37535;SDS011;23379;51.554;6.736;2024-01-06T00:42:57;16.35;;;11.43;;
37535;SDS011;23379;51.554;6.736;2024-01-06T00:45:23;15.73;;;11.57;;
37535;SDS011;23379;51.554;6.736;2024-01-06T00:47:49;15.15;;;11.63;;
37535;SDS011;23379;51.554;6.736;2024-01-06T00:50:14;17.45;;;11.95;;
37535;SDS011;23379;51.554;6.736;2024-01-06T00:52:41;18.58;;;12.25;;
37535;SDS011;23379;51.554;6.736;2024-01-06T00:55:06;19.15;;;11.88;;
37535;SDS011;23379;51.554;6.736;2024-01-06T00:57:32;18.80;;;12.43;;
37535;SDS011;23379;51.554;6.736;2024-01-06T00:59:58;17.50;;;12.35;;
37535;SDS011;23379;51.554;6.736;2024-01-06T01:02:23;22.20;;;14.13;;
37535;SDS011;23379;51.554;6.736;2024-01-06T01:04:48;20.58;;;13.27;;
37535;SDS011;23379;51.554;6.736;2024-01-06T01:07:14;23.10;;;13.98;;
37535;SDS011;23379;51.554;6.736;2024-01-06T01:09:39;21.02;;;13.23;;
37535;SDS011;23379;51.554;6.736;2024-01-06T01:12:04;21.55;;;13.38;;
37535;SDS011;23379;51.554;6.736;2024-01-06T01:14:30;20.40;;;13.70;;
37535;SDS011;23379;51.554;6.736;2024-01-06T01:16:55;19.20;;;12.82;;
37535;SDS011;23379;51.554;6.736;2024-01-06T01:19:20;20.67;;;14.32;;
37535;SDS011;23379;51.554;6.736;2024-01-06T01:21:46;22.30;;;14.20;;
37535;SDS011;23379;51.554;6.736;2024-01-06T01:24:11;23.23;;;14.48;;
37535;SDS011;23379;51.554;6.736;2024-01-06T01:26:36;25.30;;;15.27;;
37535;SDS011;23379;51.554;6.736;2024-01-06T01:29:02;25.00;;;15.07;;
37535;SDS011;23379;51.554;6.736;2024-01-06T01:31:27;24.33;;;14.82;;
37535;SDS011;23379;51.554;6.736;2024-01-06T01:33:52;24.05;;;15.23;;
37535;SDS011;23379;51.554;6.736;2024-01-06T01:36:18;24.45;;;14.65;;
37535;SDS011;23379;51.554;6.736;2024-01-06T01:38:43;23.67;;;15.07;;
37535;SDS011;23379;51.554;6.736;2024-01-06T01:41:08;24.33;;;14.77;;
37535;SDS011;23379;51.554;6.736;2024-01-06T01:43:34;23.17;;;15.35;;
37535;SDS011;23379;51.554;6.736;2024-01-06T01:45:59;26.10;;;15.38;;
37535;SDS011;23379;51.554;6.736;2024-01-06T01:48:25;23.58;;;14.85;;
37535;SDS011;23379;51.554;6.736;2024-01-06T01:50:51;27.92;;;15.60;;
37535;SDS011;23379;51.554;6.736;2024-01-06T01:53:18;26.35;;;16.00;;
37535;SDS011;23379;51.554;6.736;2024-01-06T01:55:44;25.40;;;15.43;;
37535;SDS011;23379;51.554;6.736;2024-01-06T01:58:10;29.45;;;16.40;;
37535;SDS011;23379;51.554;6.736;2024-01-06T02:00:38;29.10;;;16.88;;
37535;SDS011;23379;51.554;6.736;2024-01-06T02:03:04;25.77;;;16.08;;
37535;SDS011;23379;51.554;6.736;2024-01-06T02:05:30;26.48;;;15.77;;
37535;SDS011;23379;51.554;6.736;2024-01-06T02:07:56;25.25;;;16.15;;
37535;SDS011;23379;51.554;6.736;2024-01-06T02:10:21;25.88;;;16.45;;
37535;SDS011;23379;51.554;6.736;2024-01-06T02:12:48;28.15;;;16.50;;
37535;SDS011;23379;51.554;6.736;2024-01-06T02:15:13;24.48;;;14.95;;
37535;SDS011;23379;51.554;6.736;2024-01-06T02:17:39;22.45;;;13.85;;
37535;SDS011;23379;51.554;6.736;2024-01-06T02:20:05;25.90;;;14.18;;
37535;SDS011;23379;51.554;6.736;2024-01-06T02:22:32;22.75;;;13.55;;
37535;SDS011;23379;51.554;6.736;2024-01-06T02:24:57;22.67;;;14.05;;
37535;SDS011;23379;51.554;6.736;2024-01-06T02:27:23;21.50;;;13.30;;
37535;SDS011;23379;51.554;6.736;2024-01-06T02:29:48;23.73;;;12.95;;
37535;SDS011;23379;51.554;6.736;2024-01-06T02:32:14;24.10;;;12.90;;
37535;SDS011;23379;51.554;6.736;2024-01-06T02:34:39;23.27;;;13.40;;
37535;SDS011;23379;51.554;6.736;2024-01-06T02:37:04;20.90;;;12.10;;
37535;SDS011;23379;51.554;6.736;2024-01-06T02:39:30;24.02;;;11.32;;
37535;SDS011;23379;51.554;6.736;2024-01-06T02:41:55;19.30;;;10.38;;
37535;SDS011;23379;51.554;6.736;2024-01-06T02:44:21;17.40;;;9.60;;
37535;SDS011;23379;51.554;6.736;2024-01-06T02:46:46;18.02;;;9.80;;
37535;SDS011;23379;51.554;6.736;2024-01-06T02:49:11;19.80;;;9.32;;
37535;SDS011;23379;51.554;6.736;2024-01-06T02:51:37;12.95;;;8.75;;
37535;SDS011;23379;51.554;6.736;2024-01-06T02:54:02;13.60;;;8.48;;
37535;SDS011;23379;51.554;6.736;2024-01-06T02:56:28;15.02;;;8.98;;
37535;SDS011;23379;51.554;6.736;2024-01-06T02:58:53;15.25;;;9.05;;
37535;SDS011;23379;51.554;6.736;2024-01-06T03:01:18;17.35;;;9.60;;
37535;SDS011;23379;51.554;6.736;2024-01-06T03:03:44;14.85;;;9.23;;
37535;SDS011;23379;51.554;6.736;2024-01-06T03:06:09;15.50;;;9.13;;
37535;SDS011;23379;51.554;6.736;2024-01-06T03:08:34;15.70;;;9.82;;
37535;SDS011;23379;51.554;6.736;2024-01-06T03:11:00;14.73;;;8.88;;
37535;SDS011;23379;51.554;6.736;2024-01-06T03:13:26;13.95;;;8.57;;
37535;SDS011;23379;51.554;6.736;2024-01-06T03:15:51;18.58;;;10.10;;
37535;SDS011;23379;51.554;6.736;2024-01-06T03:18:16;17.35;;;9.50;;
37535;SDS011;23379;51.554;6.736;2024-01-06T03:20:42;17.35;;;9.88;;
37535;SDS011;23379;51.554;6.736;2024-01-06T03:23:07;16.75;;;9.75;;
37535;SDS011;23379;51.554;6.736;2024-01-06T03:25:32;16.40;;;9.43;;
37535;SDS011;23379;51.554;6.736;2024-01-06T03:27:58;17.15;;;9.52;;
37535;SDS011;23379;51.554;6.736;2024-01-06T03:30:23;16.05;;;9.60;;
37535;SDS011;23379;51.554;6.736;2024-01-06T03:32:49;15.65;;;9.02;;
37535;SDS011;23379;51.554;6.736;2024-01-06T03:35:14;14.95;;;9.30;;
37535;SDS011;23379;51.554;6.736;2024-01-06T03:37:40;17.17;;;8.85;;
37535;SDS011;23379;51.554;6.736;2024-01-06T03:40:06;16.52;;;9.60;;
37535;SDS011;23379;51.554;6.736;2024-01-06T03:42:32;17.90;;;9.10;;
37535;SDS011;23379;51.554;6.736;2024-01-06T03:44:57;14.63;;;9.18;;
37535;SDS011;23379;51.554;6.736;2024-01-06T03:47:23;16.13;;;9.85;;
37535;SDS011;23379;51.554;6.736;2024-01-06T03:49:48;15.93;;;10.02;;
37535;SDS011;23379;51.554;6.736;2024-01-06T03:52:14;15.90;;;9.27;;
37535;SDS011;23379;51.554;6.736;2024-01-06T03:54:39;16.48;;;8.98;;
37535;SDS011;23379;51.554;6.736;2024-01-06T03:57:04;14.25;;;8.75;;
37535;SDS011;23379;51.554;6.736;2024-01-06T03:59:30;17.15;;;9.63;;
37535;SDS011;23379;51.554;6.736;2024-01-06T04:01:55;15.07;;;9.70;;
37535;SDS011;23379;51.554;6.736;2024-01-06T04:04:21;14.80;;;8.73;;
37535;SDS011;23379;51.554;6.736;2024-01-06T04:06:46;17.27;;;9.35;;
37535;SDS011;23379;51.554;6.736;2024-01-06T04:09:12;14.18;;;9.00;;
37535;SDS011;23379;51.554;6.736;2024-01-06T04:11:37;15.80;;;9.65;;
37535;SDS011;23379;51.554;6.736;2024-01-06T04:14:03;15.05;;;9.65;;
37535;SDS011;23379;51.554;6.736;2024-01-06T04:16:28;16.02;;;9.48;;
37535;SDS011;23379;51.554;6.736;2024-01-06T04:18:53;15.43;;;9.75;;
37535;SDS011;23379;51.554;6.736;2024-01-06T04:21:19;16.35;;;9.60;;
37535;SDS011;23379;51.554;6.736;2024-01-06T04:23:44;16.30;;;9.50;;
37535;SDS011;23379;51.554;6.736;2024-01-06T04:26:09;13.93;;;9.15;;
37535;SDS011;23379;51.554;6.736;2024-01-06T04:28:35;16.05;;;9.70;;
37535;SDS011;23379;51.554;6.736;2024-01-06T04:31:00;16.25;;;9.65;;
37535;SDS011;23379;51.554;6.736;2024-01-06T04:33:26;18.05;;;9.52;;
37535;SDS011;23379;51.554;6.736;2024-01-06T04:35:51;14.27;;;9.32;;
37535;SDS011;23379;51.554;6.736;2024-01-06T04:38:17;16.35;;;10.07;;
37535;SDS011;23379;51.554;6.736;2024-01-06T04:40:42;16.88;;;10.32;;
37535;SDS011;23379;51.554;6.736;2024-01-06T04:43:08;21.67;;;11.32;;
37535;SDS011;23379;51.554;6.736;2024-01-06T04:45:33;18.45;;;10.07;;
37535;SDS011;23379;51.554;6.736;2024-01-06T04:47:59;18.98;;;11.25;;
37535;SDS011;23379;51.554;6.736;2024-01-06T04:50:25;18.27;;;10.30;;
37535;SDS011;23379;51.554;6.736;2024-01-06T04:52:50;16.83;;;10.77;;
37535;SDS011;23379;51.554;6.736;2024-01-06T04:55:15;16.98;;;9.85;;
37535;SDS011;23379;51.554;6.736;2024-01-06T04:57:41;15.98;;;9.13;;
37535;SDS011;23379;51.554;6.736;2024-01-06T05:00:06;19.02;;;10.95;;
37535;SDS011;23379;51.554;6.736;2024-01-06T05:02:32;20.10;;;10.88;;
37535;SDS011;23379;51.554;6.736;2024-01-06T05:04:57;16.13;;;9.93;;
37535;SDS011;23379;51.554;6.736;2024-01-06T05:07:23;22.88;;;11.60;;
37535;SDS011;23379;51.554;6.736;2024-01-06T05:09:48;19.38;;;11.05;;
37535;SDS011;23379;51.554;6.736;2024-01-06T05:12:14;20.33;;;11.40;;
37535;SDS011;23379;51.554;6.736;2024-01-06T05:14:39;22.00;;;11.60;;
37535;SDS011;23379;51.554;6.736;2024-01-06T05:17:04;20.70;;;11.60;;
37535;SDS011;23379;51.554;6.736;2024-01-06T05:19:30;20.15;;;10.52;;
37535;SDS011;23379;51.554;6.736;2024-01-06T05:21:56;20.20;;;11.93;;
37535;SDS011;23379;51.554;6.736;2024-01-06T05:24:22;24.98;;;12.80;;
37535;SDS011;23379;51.554;6.736;2024-01-06T05:26:47;20.45;;;11.65;;
37535;SDS011;23379;51.554;6.736;2024-01-06T05:29:12;21.77;;;11.52;;
37535;SDS011;23379;51.554;6.736;2024-01-06T05:31:38;20.70;;;12.35;;
37535;SDS011;23379;51.554;6.736;2024-01-06T05:34:03;20.83;;;12.15;;
37535;SDS011;23379;51.554;6.736;2024-01-06T05:36:29;22.92;;;12.70;;
37535;SDS011;23379;51.554;6.736;2024-01-06T05:38:55;22.02;;;12.32;;
37535;SDS011;23379;51.554;6.736;2024-01-06T05:41:20;20.45;;;11.65;;
37535;SDS011;23379;51.554;6.736;2024-01-06T05:43:46;17.27;;;10.50;;
37535;SDS011;23379;51.554;6.736;2024-01-06T05:46:11;16.80;;;10.82;;
37535;SDS011;23379;51.554;6.736;2024-01-06T05:48:36;19.33;;;11.27;;
37535;SDS011;23379;51.554;6.736;2024-01-06T05:51:05;21.50;;;11.43;;
37535;SDS011;23379;51.554;6.736;2024-01-06T05:53:31;22.40;;;12.48;;
37535;SDS011;23379;51.554;6.736;2024-01-06T05:55:56;19.58;;;11.32;;
37535;SDS011;23379;51.554;6.736;2024-01-06T05:58:22;21.42;;;12.85;;
37535;SDS011;23379;51.554;6.736;2024-01-06T06:00:47;19.00;;;11.32;;
37535;SDS011;23379;51.554;6.736;2024-01-06T06:03:13;18.80;;;11.80;;
37535;SDS011;23379;51.554;6.736;2024-01-06T06:05:38;20.75;;;12.20;;
37535;SDS011;23379;51.554;6.736;2024-01-06T06:08:04;18.98;;;11.38;;
37535;SDS011;23379;51.554;6.736;2024-01-06T06:10:29;20.08;;;12.20;;
37535;SDS011;23379;51.554;6.736;2024-01-06T06:13:05;17.58;;;11.18;;
37535;SDS011;23379;51.554;6.736;2024-01-06T06:15:31;17.63;;;10.85;;
37535;SDS011;23379;51.554;6.736;2024-01-06T06:17:57;15.77;;;10.70;;
37535;SDS011;23379;51.554;6.736;2024-01-06T06:20:25;17.45;;;11.00;;
37535;SDS011;23379;51.554;6.736;2024-01-06T06:22:50;14.43;;;9.85;;
37535;SDS011;23379;51.554;6.736;2024-01-06T06:25:16;18.52;;;10.95;;
37535;SDS011;23379;51.554;6.736;2024-01-06T06:27:41;17.95;;;11.18;;
37535;SDS011;23379;51.554;6.736;2024-01-06T06:30:07;18.05;;;11.55;;
37535;SDS011;23379;51.554;6.736;2024-01-06T06:32:33;15.57;;;9.75;;
37535;SDS011;23379;51.554;6.736;2024-01-06T06:34:58;17.20;;;10.02;;
37535;SDS011;23379;51.554;6.736;2024-01-06T06:37:24;17.23;;;10.45;;
37535;SDS011;23379;51.554;6.736;2024-01-06T06:39:49;15.98;;;11.07;;
37535;SDS011;23379;51.554;6.736;2024-01-06T06:42:14;17.05;;;10.32;;
37535;SDS011;23379;51.554;6.736;2024-01-06T06:44:40;16.95;;;10.50;;
37535;SDS011;23379;51.554;6.736;2024-01-06T06:47:05;19.05;;;11.55;;
37535;SDS011;23379;51.554;6.736;2024-01-06T06:49:30;18.75;;;12.27;;
37535;SDS011;23379;51.554;6.736;2024-01-06T06:51:56;20.30;;;11.85;;
37535;SDS011;23379;51.554;6.736;2024-01-06T06:54:21;24.55;;;13.57;;
37535;SDS011;23379;51.554;6.736;2024-01-06T06:56:46;21.73;;;12.32;;
37535;SDS011;23379;51.554;6.736;2024-01-06T06:59:12;23.77;;;11.73;;
37535;SDS011;23379;51.554;6.736;2024-01-06T07:01:37;20.38;;;10.68;;
37535;SDS011;23379;51.554;6.736;2024-01-06T07:04:03;18.50;;;10.05;;
37535;SDS011;23379;51.554;6.736;2024-01-06T07:06:28;24.40;;;12.35;;
37535;SDS011;23379;51.554;6.736;2024-01-06T07:08:54;25.30;;;12.88;;
37535;SDS011;23379;51.554;6.736;2024-01-06T07:11:20;26.27;;;12.57;;
37535;SDS011;23379;51.554;6.736;2024-01-06T07:13:46;21.27;;;12.45;;
37535;SDS011;23379;51.554;6.736;2024-01-06T07:16:12;29.30;;;12.20;;
37535;SDS011;23379;51.554;6.736;2024-01-06T07:18:37;23.52;;;12.55;;
37535;SDS011;23379;51.554;6.736;2024-01-06T07:21:05;23.58;;;13.18;;
37535;SDS011;23379;51.554;6.736;2024-01-06T07:23:34;31.08;;;14.20;;
37535;SDS011;23379;51.554;6.736;2024-01-06T07:25:59;29.92;;;14.20;;
37535;SDS011;23379;51.554;6.736;2024-01-06T07:28:25;32.88;;;15.63;;
37535;SDS011;23379;51.554;6.736;2024-01-06T07:30:51;28.73;;;14.60;;
37535;SDS011;23379;51.554;6.736;2024-01-06T07:33:17;29.50;;;14.45;;
37535;SDS011;23379;51.554;6.736;2024-01-06T07:35:42;38.75;;;16.08;;
37535;SDS011;23379;51.554;6.736;2024-01-06T07:38:11;32.50;;;15.70;;
37535;SDS011;23379;51.554;6.736;2024-01-06T07:40:37;36.42;;;16.50;;
37535;SDS011;23379;51.554;6.736;2024-01-06T07:43:03;34.38;;;15.60;;
37535;SDS011;23379;51.554;6.736;2024-01-06T07:45:29;32.92;;;15.55;;
37535;SDS011;23379;51.554;6.736;2024-01-06T07:47:55;38.53;;;17.33;;
37535;SDS011;23379;51.554;6.736;2024-01-06T07:50:20;38.00;;;14.90;;
37535;SDS011;23379;51.554;6.736;2024-01-06T07:52:45;44.70;;;17.17;;
37535;SDS011;23379;51.554;6.736;2024-01-06T07:55:11;33.92;;;15.70;;
37535;SDS011;23379;51.554;6.736;2024-01-06T07:57:36;34.38;;;17.15;;
37535;SDS011;23379;51.554;6.736;2024-01-06T08:00:01;40.92;;;16.73;;
37535;SDS011;23379;51.554;6.736;2024-01-06T08:02:27;34.75;;;15.93;;
37535;SDS011;23379;51.554;6.736;2024-01-06T08:04:53;35.08;;;16.45;;
37535;SDS011;23379;51.554;6.736;2024-01-06T08:07:20;36.10;;;16.42;;
37535;SDS011;23379;51.554;6.736;2024-01-06T08:09:46;37.95;;;16.02;;
37535;SDS011;23379;51.554;6.736;2024-01-06T08:12:11;31.88;;;15.75;;
37535;SDS011;23379;51.554;6.736;2024-01-06T08:14:37;36.17;;;14.60;;
37535;SDS011;23379;51.554;6.736;2024-01-06T08:17:02;29.83;;;14.73;;
37535;SDS011;23379;51.554;6.736;2024-01-06T08:19:28;31.42;;;15.38;;
37535;SDS011;23379;51.554;6.736;2024-01-06T08:21:55;33.80;;;15.07;;
37535;SDS011;23379;51.554;6.736;2024-01-06T08:24:20;35.40;;;15.15;;
37535;SDS011;23379;51.554;6.736;2024-01-06T08:26:46;31.92;;;15.10;;
37535;SDS011;23379;51.554;6.736;2024-01-06T08:29:12;27.08;;;13.75;;
37535;SDS011;23379;51.554;6.736;2024-01-06T08:31:39;25.63;;;13.48;;
37535;SDS011;23379;51.554;6.736;2024-01-06T08:34:04;27.77;;;13.25;;
37535;SDS011;23379;51.554;6.736;2024-01-06T08:36:31;28.52;;;13.43;;
37535;SDS011;23379;51.554;6.736;2024-01-06T08:38:56;26.10;;;12.38;;
37535;SDS011;23379;51.554;6.736;2024-01-06T08:41:21;23.98;;;12.65;;
37535;SDS011;23379;51.554;6.736;2024-01-06T08:43:47;20.25;;;11.10;;
37535;SDS011;23379;51.554;6.736;2024-01-06T08:46:12;25.02;;;11.40;;
37535;SDS011;23379;51.554;6.736;2024-01-06T08:48:37;23.52;;;12.40;;
37535;SDS011;23379;51.554;6.736;2024-01-06T08:51:03;21.73;;;12.27;;
37535;SDS011;23379;51.554;6.736;2024-01-06T08:53:28;25.05;;;12.25;;
37535;SDS011;23379;51.554;6.736;2024-01-06T08:55:54;27.00;;;12.68;;
37535;SDS011;23379;51.554;6.736;2024-01-06T08:58:19;20.00;;;11.27;;
37535;SDS011;23379;51.554;6.736;2024-01-06T09:00:44;21.25;;;10.35;;
37535;SDS011;23379;51.554;6.736;2024-01-06T09:03:10;24.52;;;11.50;;
37535;SDS011;23379;51.554;6.736;2024-01-06T09:05:37;19.40;;;9.93;;
37535;SDS011;23379;51.554;6.736;2024-01-06T09:08:02;20.10;;;10.80;;
37535;SDS011;23379;51.554;6.736;2024-01-06T09:10:28;24.17;;;12.27;;
37535;SDS011;23379;51.554;6.736;2024-01-06T09:12:54;22.50;;;11.60;;
37535;SDS011;23379;51.554;6.736;2024-01-06T09:15:20;27.33;;;13.45;;
37535;SDS011;23379;51.554;6.736;2024-01-06T09:17:45;22.13;;;12.38;;
37535;SDS011;23379;51.554;6.736;2024-01-06T09:20:10;25.45;;;12.90;;
37535;SDS011;23379;51.554;6.736;2024-01-06T09:22:36;25.27;;;11.82;;
37535;SDS011;23379;51.554;6.736;2024-01-06T09:25:01;30.13;;;13.15;;
37535;SDS011;23379;51.554;6.736;2024-01-06T09:27:27;29.52;;;13.25;;
37535;SDS011;23379;51.554;6.736;2024-01-06T09:29:52;28.40;;;13.18;;
37535;SDS011;23379;51.554;6.736;2024-01-06T09:32:17;29.65;;;13.32;;
37535;SDS011;23379;51.554;6.736;2024-01-06T09:34:43;27.83;;;13.38;;
37535;SDS011;23379;51.554;6.736;2024-01-06T09:37:08;34.55;;;15.32;;
37535;SDS011;23379;51.554;6.736;2024-01-06T09:39:33;30.27;;;14.50;;
37535;SDS011;23379;51.554;6.736;2024-01-06T09:41:59;26.67;;;13.85;;
37535;SDS011;23379;51.554;6.736;2024-01-06T09:44:24;30.15;;;14.90;;
37535;SDS011;23379;51.554;6.736;2024-01-06T09:46:50;34.05;;;15.95;;
37535;SDS011;23379;51.554;6.736;2024-01-06T09:49:20;30.58;;;14.70;;
37535;SDS011;23379;51.554;6.736;2024-01-06T09:51:49;37.33;;;16.38;;
37535;SDS011;23379;51.554;6.736;2024-01-06T09:54:16;30.63;;;15.98;;
37535;SDS011;23379;51.554;6.736;2024-01-06T09:56:47;34.35;;;15.68;;
37535;SDS011;23379;51.554;6.736;2024-01-06T09:59:14;34.67;;;16.00;;
37535;SDS011;23379;51.554;6.736;2024-01-06T10:01:40;40.53;;;16.35;;
37535;SDS011;23379;51.554;6.736;2024-01-06T10:04:06;40.80;;;17.02;;
37535;SDS011;23379;51.554;6.736;2024-01-06T10:06:32;33.53;;;16.58;;
37535;SDS011;23379;51.554;6.736;2024-01-06T10:08:58;35.97;;;15.88;;
37535;SDS011;23379;51.554;6.736;2024-01-06T10:11:23;39.28;;;17.10;;
37535;SDS011;23379;51.554;6.736;2024-01-06T10:13:49;30.60;;;15.35;;
37535;SDS011;23379;51.554;6.736;2024-01-06T10:16:19;35.65;;;16.35;;
37535;SDS011;23379;51.554;6.736;2024-01-06T10:18:44;40.03;;;17.92;;
37535;SDS011;23379;51.554;6.736;2024-01-06T10:21:10;42.42;;;17.58;;
37535;SDS011;23379;51.554;6.736;2024-01-06T10:23:35;40.55;;;17.80;;
37535;SDS011;23379;51.554;6.736;2024-01-06T10:26:01;37.58;;;17.13;;
37535;SDS011;23379;51.554;6.736;2024-01-06T10:28:28;38.85;;;17.35;;
37535;SDS011;23379;51.554;6.736;2024-01-06T10:30:54;38.78;;;18.20;;
37535;SDS011;23379;51.554;6.736;2024-01-06T10:33:25;34.67;;;16.40;;
37535;SDS011;23379;51.554;6.736;2024-01-06T10:35:52;35.80;;;15.40;;
37535;SDS011;23379;51.554;6.736;2024-01-06T10:38:17;41.58;;;17.73;;
37535;SDS011;23379;51.554;6.736;2024-01-06T10:41:02;37.67;;;15.88;;
37535;SDS011;23379;51.554;6.736;2024-01-06T10:43:32;37.97;;;15.57;;
37535;SDS011;23379;51.554;6.736;2024-01-06T10:46:06;32.58;;;15.95;;
37535;SDS011;23379;51.554;6.736;2024-01-06T10:48:35;30.73;;;15.23;;
37535;SDS011;23379;51.554;6.736;2024-01-06T10:51:03;30.15;;;15.18;;
37535;SDS011;23379;51.554;6.736;2024-01-06T10:53:32;37.05;;;17.27;;
37535;SDS011;23379;51.554;6.736;2024-01-06T10:55:58;34.22;;;16.70;;
37535;SDS011;23379;51.554;6.736;2024-01-06T10:58:25;34.03;;;16.00;;
37535;SDS011;23379;51.554;6.736;2024-01-06T11:00:50;31.70;;;14.40;;
37535;SDS011;23379;51.554;6.736;2024-01-06T11:03:16;31.52;;;15.35;;
37535;SDS011;23379;51.554;6.736;2024-01-06T11:05:43;30.88;;;14.32;;
37535;SDS011;23379;51.554;6.736;2024-01-06T11:08:08;33.95;;;14.48;;
37535;SDS011;23379;51.554;6.736;2024-01-06T11:10:35;27.67;;;15.18;;
37535;SDS011;23379;51.554;6.736;2024-01-06T11:13:08;22.77;;;12.40;;
37535;SDS011;23379;51.554;6.736;2024-01-06T11:15:47;29.63;;;14.10;;
37535;SDS011;23379;51.554;6.736;2024-01-06T11:18:32;29.60;;;15.07;;
37535;SDS011;23379;51.554;6.736;2024-01-06T11:23:48;24.80;;;12.50;;
37535;SDS011;23379;51.554;6.736;2024-01-06T11:26:31;25.00;;;12.65;;
37535;SDS011;23379;51.554;6.736;2024-01-06T11:28:57;27.65;;;12.27;;
37535;SDS011;23379;51.554;6.736;2024-01-06T11:31:23;24.08;;;13.70;;
37535;SDS011;23379;51.554;6.736;2024-01-06T11:33:53;22.55;;;12.70;;
37535;SDS011;23379;51.554;6.736;2024-01-06T11:36:19;35.20;;;13.45;;
37535;SDS011;23379;51.554;6.736;2024-01-06T11:38:45;26.80;;;12.95;;
37535;SDS011;23379;51.554;6.736;2024-01-06T11:41:44;25.05;;;12.98;;
37535;SDS011;23379;51.554;6.736;2024-01-06T11:44:13;22.88;;;12.45;;
37535;SDS011;23379;51.554;6.736;2024-01-06T11:46:38;24.63;;;12.38;;
37535;SDS011;23379;51.554;6.736;2024-01-06T11:49:06;23.08;;;12.45;;
37535;SDS011;23379;51.554;6.736;2024-01-06T11:51:34;26.25;;;13.75;;
37535;SDS011;23379;51.554;6.736;2024-01-06T11:54:00;25.92;;;13.32;;
37535;SDS011;23379;51.554;6.736;2024-01-06T11:56:26;21.98;;;12.10;;
37535;SDS011;23379;51.554;6.736;2024-01-06T11:58:51;25.63;;;13.40;;
37535;SDS011;23379;51.554;6.736;2024-01-06T12:01:16;28.25;;;13.25;;
37535;SDS011;23379;51.554;6.736;2024-01-06T12:03:42;23.60;;;12.70;;
37535;SDS011;23379;51.554;6.736;2024-01-06T12:06:07;24.40;;;13.05;;
37535;SDS011;23379;51.554;6.736;2024-01-06T12:08:32;27.55;;;13.80;;
37535;SDS011;23379;51.554;6.736;2024-01-06T12:11:02;25.70;;;12.43;;
37535;SDS011;23379;51.554;6.736;2024-01-06T12:13:28;23.30;;;12.38;;
37535;SDS011;23379;51.554;6.736;2024-01-06T12:15:53;26.95;;;13.32;;
37535;SDS011;23379;51.554;6.736;2024-01-06T12:18:20;26.00;;;12.82;;
37535;SDS011;23379;51.554;6.736;2024-01-06T12:20:45;25.13;;;12.40;;
37535;SDS011;23379;51.554;6.736;2024-01-06T12:23:11;22.05;;;12.63;;
37535;SDS011;23379;51.554;6.736;2024-01-06T12:25:36;27.85;;;13.90;;
37535;SDS011;23379;51.554;6.736;2024-01-06T12:28:03;24.98;;;13.23;;
37535;SDS011;23379;51.554;6.736;2024-01-06T12:30:30;20.20;;;11.75;;
37535;SDS011;23379;51.554;6.736;2024-01-06T12:32:56;23.90;;;11.50;;
37535;SDS011;23379;51.554;6.736;2024-01-06T12:35:21;22.42;;;11.43;;
37535;SDS011;23379;51.554;6.736;2024-01-06T12:37:47;21.48;;;10.73;;
37535;SDS011;23379;51.554;6.736;2024-01-06T12:40:13;23.25;;;10.40;;
37535;SDS011;23379;51.554;6.736;2024-01-06T12:42:41;20.92;;;10.38;;
37535;SDS011;23379;51.554;6.736;2024-01-06T12:45:07;19.23;;;10.82;;
37535;SDS011;23379;51.554;6.736;2024-01-06T12:47:33;22.52;;;11.25;;
37535;SDS011;23379;51.554;6.736;2024-01-06T12:49:59;23.02;;;11.93;;
37535;SDS011;23379;51.554;6.736;2024-01-06T12:52:24;21.20;;;11.02;;
37535;SDS011;23379;51.554;6.736;2024-01-06T12:54:49;21.95;;;12.32;;
37535;SDS011;23379;51.554;6.736;2024-01-06T12:57:15;24.05;;;12.63;;
37535;SDS011;23379;51.554;6.736;2024-01-06T12:59:40;31.40;;;13.20;;
37535;SDS011;23379;51.554;6.736;2024-01-06T13:02:06;26.90;;;12.95;;
37535;SDS011;23379;51.554;6.736;2024-01-06T13:04:31;25.40;;;12.82;;
37535;SDS011;23379;51.554;6.736;2024-01-06T13:06:57;20.95;;;12.18;;
37535;SDS011;23379;51.554;6.736;2024-01-06T13:09:22;20.05;;;11.18;;
37535;SDS011;23379;51.554;6.736;2024-01-06T13:11:49;25.15;;;12.88;;
37535;SDS011;23379;51.554;6.736;2024-01-06T13:14:16;23.75;;;11.98;;
37535;SDS011;23379;51.554;6.736;2024-01-06T13:16:42;22.90;;;12.77;;
37535;SDS011;23379;51.554;6.736;2024-01-06T13:19:08;25.17;;;12.23;;
37535;SDS011;23379;51.554;6.736;2024-01-06T13:21:34;27.30;;;13.05;;
37535;SDS011;23379;51.554;6.736;2024-01-06T13:24:00;26.52;;;12.13;;
37535;SDS011;23379;51.554;6.736;2024-01-06T13:26:27;25.50;;;12.15;;
37535;SDS011;23379;51.554;6.736;2024-01-06T13:28:53;28.35;;;13.00;;
37535;SDS011;23379;51.554;6.736;2024-01-06T13:31:18;24.38;;;12.65;;
37535;SDS011;23379;51.554;6.736;2024-01-06T13:33:44;24.33;;;13.07;;
37535;SDS011;23379;51.554;6.736;2024-01-06T13:36:09;31.60;;;14.45;;
37535;SDS011;23379;51.554;6.736;2024-01-06T13:38:35;26.38;;;13.60;;
37535;SDS011;23379;51.554;6.736;2024-01-06T13:41:00;27.88;;;13.70;;
37535;SDS011;23379;51.554;6.736;2024-01-06T13:43:25;25.35;;;14.20;;
37535;SDS011;23379;51.554;6.736;2024-01-06T13:45:51;34.00;;;15.02;;
37535;SDS011;23379;51.554;6.736;2024-01-06T13:48:17;29.40;;;14.68;;
37535;SDS011;23379;51.554;6.736;2024-01-06T13:50:43;26.75;;;13.85;;
37535;SDS011;23379;51.554;6.736;2024-01-06T13:53:13;25.35;;;13.52;;
37535;SDS011;23379;51.554;6.736;2024-01-06T13:55:39;26.08;;;13.52;;
37535;SDS011;23379;51.554;6.736;2024-01-06T13:58:04;25.52;;;13.93;;
37535;SDS011;23379;51.554;6.736;2024-01-06T14:00:29;26.13;;;14.27;;
37535;SDS011;23379;51.554;6.736;2024-01-06T14:02:55;29.63;;;14.45;;
37535;SDS011;23379;51.554;6.736;2024-01-06T14:05:21;29.52;;;15.77;;
37535;SDS011;23379;51.554;6.736;2024-01-06T14:07:47;38.03;;;17.05;;
37535;SDS011;23379;51.554;6.736;2024-01-06T14:10:15;34.40;;;16.42;;
37535;SDS011;23379;51.554;6.736;2024-01-06T14:12:40;35.75;;;16.17;;
37535;SDS011;23379;51.554;6.736;2024-01-06T14:15:06;36.17;;;16.65;;
37535;SDS011;23379;51.554;6.736;2024-01-06T14:17:33;28.58;;;15.25;;
37535;SDS011;23379;51.554;6.736;2024-01-06T14:19:58;33.80;;;16.48;;